createdAt,value
2019-02-15T00:00:21.655Z,100445.34
2019-02-15T00:02:50.373Z,100438.95
2019-02-15T00:05:19.032Z,100432.05
2019-02-15T00:07:47.725Z,100428.17
2019-02-15T00:10:16.290Z,100427.98
2019-02-15T00:12:45.001Z,100434.81
2019-02-15T00:15:13.661Z,100437.83
2019-02-15T00:17:52.803Z,100442.50
2019-02-15T00:20:39.031Z,100446.21
2019-02-15T00:23:07.648Z,100449.23
2019-02-15T00:25:36.409Z,100444.92
2019-02-15T00:28:05.102Z,100446.76
2019-02-15T00:30:33.803Z,100439.48
2019-02-15T00:33:02.458Z,100430.08
2019-02-15T00:35:31.157Z,100432.66
2019-02-15T00:37:59.800Z,100429.22
2019-02-15T00:40:28.519Z,100427.06
2019-02-15T00:42:57.096Z,100426.11
2019-02-15T00:45:27.471Z,100431.38
2019-02-15T00:48:00.307Z,100435.73
2019-02-15T00:50:30.599Z,100433.91
2019-02-15T00:53:03.687Z,100437.77
2019-02-15T00:55:36.722Z,100437.59
2019-02-15T00:58:07.495Z,100432.33
2019-02-15T01:00:40.384Z,100434.33
2019-02-15T01:03:16.646Z,100434.77
2019-02-15T01:05:59.070Z,100430.13
2019-02-15T01:08:35.356Z,100428.52
2019-02-15T01:11:06.559Z,100422.20
2019-02-15T01:13:35.209Z,100432.87
2019-02-15T01:16:03.855Z,100429.95
2019-02-15T01:18:32.546Z,100433.92
2019-02-15T01:21:01.115Z,100435.73
2019-02-15T01:23:29.791Z,100426.41
2019-02-15T01:26:00.176Z,100434.11
2019-02-15T01:28:33.423Z,100435.40
2019-02-15T01:31:20.043Z,100430.58
2019-02-15T01:33:59.987Z,100431.53
2019-02-15T01:36:30.225Z,100428.03
2019-02-15T01:39:00.460Z,100434.83
2019-02-15T01:41:48.152Z,100425.49
2019-02-15T01:44:18.373Z,100431.66
2019-02-15T01:46:51.416Z,100432.91
2019-02-15T01:49:20.170Z,100434.20
2019-02-15T01:51:48.745Z,100433.03
2019-02-15T01:54:17.458Z,100428.73
2019-02-15T01:56:46.031Z,100429.16
2019-02-15T01:59:14.618Z,100428.34
2019-02-15T02:01:43.274Z,100427.88
2019-02-15T02:04:11.970Z,100420.13
2019-02-15T02:06:40.656Z,100426.19
2019-02-15T02:09:09.401Z,100414.09
2019-02-15T02:11:38.091Z,100411.08
2019-02-15T02:14:06.711Z,100409.35
2019-02-15T02:16:35.344Z,100408.50
2019-02-15T02:19:04.026Z,100407.64
2019-02-15T02:21:32.726Z,100406.39
2019-02-15T02:24:01.297Z,100402.94
2019-02-15T02:26:29.947Z,100401.22
2019-02-15T02:28:58.521Z,100405.52
2019-02-15T02:31:27.174Z,100407.72
2019-02-15T02:33:55.818Z,100406.50
2019-02-15T02:36:36.360Z,100408.23
2019-02-15T02:39:05.561Z,100407.80
2019-02-15T02:41:37.835Z,100407.38
2019-02-15T02:44:06.435Z,100397.46
2019-02-15T02:46:34.924Z,100403.02
2019-02-15T02:49:03.533Z,100407.33
2019-02-15T02:51:32.079Z,100406.42
2019-02-15T02:54:00.709Z,100413.32
2019-02-15T02:56:29.330Z,100410.86
2019-02-15T02:58:57.942Z,100413.95
2019-02-15T03:01:26.573Z,100419.20
2019-02-15T03:03:55.114Z,100419.67
2019-02-15T03:06:23.668Z,100420.11
2019-02-15T03:08:52.284Z,100424.88
2019-02-15T03:11:20.891Z,100429.23
2019-02-15T03:13:49.569Z,100433.66
2019-02-15T03:16:18.134Z,100436.19
2019-02-15T03:18:46.734Z,100438.73
2019-02-15T03:21:19.670Z,100430.89
2019-02-15T03:23:48.182Z,100427.39
2019-02-15T03:26:16.861Z,100423.91
2019-02-15T03:28:45.425Z,100426.92
2019-02-15T03:31:14.040Z,100433.39
2019-02-15T03:33:42.608Z,100443.38
2019-02-15T03:36:12.876Z,100446.48
2019-02-15T03:38:43.021Z,100444.20
2019-02-15T03:41:28.702Z,100441.91
2019-02-15T03:43:57.393Z,100434.11
2019-02-15T03:46:26.238Z,100437.70
2019-02-15T03:48:54.878Z,100441.38
2019-02-15T03:51:23.441Z,100450.66
2019-02-15T03:53:52.143Z,100456.05
2019-02-15T03:56:20.763Z,100458.69
2019-02-15T03:58:49.439Z,100462.08
2019-02-15T04:01:18.078Z,100474.77
2019-02-15T04:03:46.770Z,100474.66
2019-02-15T04:06:15.299Z,100460.78
2019-02-15T04:08:43.904Z,100462.98
2019-02-15T04:11:12.477Z,100468.15
2019-02-15T04:13:41.183Z,100471.81
2019-02-15T04:16:09.905Z,100465.91
2019-02-15T04:18:38.597Z,100459.88
2019-02-15T04:21:07.160Z,100450.78
2019-02-15T04:23:38.597Z,100460.58
2019-02-15T04:26:07.149Z,100463.41
2019-02-15T04:28:35.753Z,100466.73
2019-02-15T04:31:04.455Z,100462.23
2019-02-15T04:33:32.918Z,100462.84
2019-02-15T04:36:07.530Z,100466.53
2019-02-15T04:38:36.181Z,100467.08
2019-02-15T04:41:04.867Z,100462.66
2019-02-15T04:43:33.538Z,100467.50
2019-02-15T04:46:02.107Z,100464.48
2019-02-15T04:48:30.690Z,100467.82
2019-02-15T04:50:59.346Z,100472.87
2019-02-15T04:53:28.078Z,100480.23
2019-02-15T04:55:56.738Z,100479.37
2019-02-15T04:58:25.340Z,100476.63
2019-02-15T05:00:54.040Z,100475.25
2019-02-15T05:03:22.760Z,100472.56
2019-02-15T05:05:51.441Z,100476.85
2019-02-15T05:08:20.123Z,100477.61
2019-02-15T05:10:48.765Z,100477.11
2019-02-15T05:13:22.073Z,100481.77
2019-02-15T05:15:50.706Z,100477.34
2019-02-15T05:18:19.299Z,100480.80
2019-02-15T05:20:47.977Z,100483.44
2019-02-15T05:23:16.627Z,100486.86
2019-02-15T05:25:45.282Z,100487.23
2019-02-15T05:28:13.967Z,100482.38
2019-02-15T05:30:42.537Z,100487.17
2019-02-15T05:33:11.156Z,100487.52
2019-02-15T05:35:39.865Z,100492.88
2019-02-15T05:38:08.535Z,100489.94
2019-02-15T05:40:37.267Z,100492.14
2019-02-15T05:43:05.862Z,100502.41
2019-02-15T05:45:37.554Z,100494.73
2019-02-15T05:48:06.165Z,100506.81
2019-02-15T05:50:34.794Z,100503.08
2019-02-15T05:53:03.426Z,100507.73
2019-02-15T05:55:31.923Z,100500.70
2019-02-15T05:58:01.742Z,100506.96
2019-02-15T06:00:37.000Z,100507.95
2019-02-15T06:03:00.692Z,100516.61
2019-02-15T06:05:29.226Z,100507.63
2019-02-15T06:07:58.083Z,100522.19
2019-02-15T06:10:29.919Z,100515.30
2019-02-15T06:12:58.705Z,100524.11
2019-02-15T06:15:27.448Z,100526.80
2019-02-15T06:18:09.155Z,100529.48
2019-02-15T06:20:37.865Z,100533.00
2019-02-15T06:23:08.086Z,100532.69
2019-02-15T06:25:37.101Z,100535.07
2019-02-15T06:28:05.995Z,100536.09
2019-02-15T06:30:34.922Z,100540.95
2019-02-15T06:33:03.873Z,100547.73
2019-02-15T06:35:33.189Z,100550.89
2019-02-15T06:38:03.432Z,100554.16
2019-02-15T06:40:32.254Z,100563.64
2019-02-15T06:43:01.047Z,100570.30
2019-02-15T06:45:30.076Z,100571.40
2019-02-15T06:47:59.081Z,100572.31
2019-02-15T06:50:28.855Z,100580.16
2019-02-15T06:52:57.597Z,100581.16
2019-02-15T06:55:26.348Z,100579.34
2019-02-15T06:57:55.142Z,100584.38
2019-02-15T07:00:43.078Z,100588.91
2019-02-15T07:03:29.522Z,100594.82
2019-02-15T07:06:04.018Z,100587.97
2019-02-15T07:08:33.385Z,100582.63
2019-02-15T07:11:07.578Z,100585.94
2019-02-15T07:13:36.457Z,100582.36
2019-02-15T07:16:05.184Z,100591.85
2019-02-15T07:18:33.958Z,100593.86
2019-02-15T07:21:02.680Z,100593.58
2019-02-15T07:23:34.341Z,100598.00
2019-02-15T07:26:04.319Z,100593.09
2019-02-15T07:28:33.137Z,100598.86
2019-02-15T07:31:01.929Z,100597.24
2019-02-15T07:33:30.782Z,100603.36
2019-02-15T07:35:59.470Z,100602.63
2019-02-15T07:38:28.622Z,100592.30
2019-02-15T07:41:04.697Z,100596.65
2019-02-15T07:43:34.039Z,100595.84
2019-02-15T07:46:02.594Z,100599.58
2019-02-15T07:48:31.284Z,100602.17
2019-02-15T07:51:09.132Z,100601.58
2019-02-15T07:53:30.272Z,100606.94
2019-02-15T07:55:58.980Z,100609.31
2019-02-15T07:58:27.463Z,100609.78
2019-02-15T08:00:56.618Z,100618.59
2019-02-15T08:03:25.236Z,100618.55
2019-02-15T08:05:53.991Z,100616.09
2019-02-15T08:08:25.690Z,100615.60
2019-02-15T08:10:54.331Z,100619.02
2019-02-15T08:13:26.030Z,100617.30
2019-02-15T08:15:54.886Z,100614.69
2019-02-15T08:18:23.785Z,100619.87
2019-02-15T08:20:54.301Z,100618.17
2019-02-15T08:23:23.306Z,100620.77
2019-02-15T08:25:52.241Z,100625.62
2019-02-15T08:28:27.775Z,100622.21
2019-02-15T08:31:00.216Z,100616.09
2019-02-15T08:36:20.445Z,100622.17
2019-02-15T08:38:49.328Z,100620.78
2019-02-15T08:41:21.263Z,100630.37
2019-02-15T08:44:00.431Z,100633.52
2019-02-15T08:46:35.741Z,100643.02
2019-02-15T08:49:05.633Z,100644.22
2019-02-15T08:51:34.319Z,100645.82
2019-02-15T08:54:05.202Z,100653.13
2019-02-15T08:56:38.574Z,100651.03
2019-02-15T08:59:08.848Z,100655.33
2019-02-15T09:01:41.421Z,100657.44
2019-02-15T09:04:12.524Z,100663.13
2019-02-15T09:06:42.699Z,100658.89
2019-02-15T09:09:13.452Z,100660.18
2019-02-15T09:11:42.102Z,100663.73
2019-02-15T09:14:13.560Z,100665.05
2019-02-15T09:16:42.285Z,100664.07
2019-02-15T09:19:10.995Z,100673.28
2019-02-15T09:21:39.882Z,100672.88
2019-02-15T09:24:08.613Z,100667.36
2019-02-15T09:26:37.507Z,100674.47
2019-02-15T09:29:11.820Z,100670.20
2019-02-15T09:31:45.641Z,100670.67
2019-02-15T09:34:14.502Z,100673.61
2019-02-15T09:36:43.308Z,100676.36
2019-02-15T09:39:12.046Z,100679.52
2019-02-15T09:41:40.620Z,100673.65
2019-02-15T09:44:09.311Z,100671.98
2019-02-15T09:46:37.924Z,100668.13
2019-02-15T09:49:06.708Z,100668.13
2019-02-15T09:51:37.489Z,100673.50
2019-02-15T09:54:06.871Z,100673.61
2019-02-15T09:56:35.648Z,100670.42
2019-02-15T09:59:04.274Z,100671.98
2019-02-15T10:01:34.950Z,100669.38
2019-02-15T10:04:03.837Z,100662.97
2019-02-15T10:06:32.403Z,100665.70
2019-02-15T10:09:00.997Z,100666.86
2019-02-15T10:11:32.377Z,100669.91
2019-02-15T10:14:03.857Z,100670.80
2019-02-15T10:16:32.468Z,100667.17
2019-02-15T10:19:01.131Z,100667.17
2019-02-15T10:21:29.681Z,100663.53
2019-02-15T10:23:59.049Z,100670.50
2019-02-15T10:26:28.277Z,100665.91
2019-02-15T10:28:57.446Z,100669.86
2019-02-15T10:31:26.199Z,100664.80
2019-02-15T10:33:55.077Z,100670.00
2019-02-15T10:36:23.850Z,100666.94
2019-02-15T10:38:52.687Z,100663.98
2019-02-15T10:41:21.325Z,100666.94
2019-02-15T10:43:49.986Z,100667.02
2019-02-15T10:46:18.935Z,100664.45
2019-02-15T10:48:50.663Z,100663.91
2019-02-15T10:51:21.156Z,100672.68
2019-02-15T10:53:50.332Z,100671.84
2019-02-15T10:56:19.053Z,100670.84
2019-02-15T10:58:47.769Z,100670.86
2019-02-15T11:01:16.571Z,100667.53
2019-02-15T11:03:45.350Z,100664.09
2019-02-15T11:06:14.081Z,100660.99
2019-02-15T11:08:42.848Z,100657.92
2019-02-15T11:11:11.534Z,100655.16
2019-02-15T11:13:43.800Z,100650.36
2019-02-15T11:16:15.739Z,100658.94
2019-02-15T11:18:44.568Z,100662.43
2019-02-15T11:21:13.276Z,100657.24
2019-02-15T11:23:42.021Z,100658.30
2019-02-15T11:26:10.824Z,100658.41
2019-02-15T11:28:39.523Z,100659.69
2019-02-15T11:31:08.278Z,100658.86
2019-02-15T11:33:37.042Z,100661.02
2019-02-15T11:36:05.777Z,100653.63
2019-02-15T11:38:34.569Z,100653.49
2019-02-15T11:41:10.926Z,100657.95
2019-02-15T11:43:34.861Z,100660.98
2019-02-15T11:46:03.635Z,100663.59
2019-02-15T11:48:32.343Z,100654.85
2019-02-15T11:51:01.480Z,100655.28
2019-02-15T11:53:30.168Z,100655.22
2019-02-15T11:55:58.835Z,100659.98
2019-02-15T11:58:27.504Z,100656.06
2019-02-15T12:00:56.282Z,100660.37
2019-02-15T12:03:25.032Z,100662.84
2019-02-15T12:05:53.923Z,100649.83
2019-02-15T12:08:22.606Z,100654.94
2019-02-15T12:10:51.265Z,100656.19
2019-02-15T12:13:20.699Z,100655.78
2019-02-15T12:15:49.503Z,100653.94
2019-02-15T12:18:24.202Z,100655.86
2019-02-15T12:20:52.857Z,100647.43
2019-02-15T12:23:21.617Z,100650.42
2019-02-15T12:25:50.373Z,100651.27
2019-02-15T12:28:19.475Z,100649.98
2019-02-15T12:30:48.606Z,100650.78
2019-02-15T12:33:17.273Z,100650.56
2019-02-15T12:35:46.068Z,100646.80
2019-02-15T12:38:15.485Z,100642.26
2019-02-15T12:40:45.593Z,100650.09
2019-02-15T12:43:14.221Z,100651.52
2019-02-15T12:45:43.057Z,100647.37
2019-02-15T12:48:12.387Z,100645.09
2019-02-15T12:50:50.532Z,100649.55
2019-02-15T12:53:19.318Z,100646.64
2019-02-15T12:55:47.962Z,100654.09
2019-02-15T12:58:17.184Z,100652.39
2019-02-15T13:00:46.276Z,100647.59
2019-02-15T13:03:14.974Z,100657.57
2019-02-15T13:05:43.600Z,100658.41
2019-02-15T13:08:12.213Z,100660.92
2019-02-15T13:10:42.249Z,100660.98
2019-02-15T13:13:11.214Z,100660.16
2019-02-15T13:15:39.929Z,100657.13
2019-02-15T13:18:08.620Z,100667.92
2019-02-15T13:20:37.345Z,100671.60
2019-02-15T13:23:06.204Z,100668.55
2019-02-15T13:25:36.855Z,100676.03
2019-02-15T13:28:05.370Z,100676.08
2019-02-15T13:30:34.096Z,100674.33
2019-02-15T13:33:02.925Z,100675.16
2019-02-15T13:35:31.617Z,100677.81
2019-02-15T13:38:00.330Z,100677.35
2019-02-15T13:40:29.077Z,100682.15
2019-02-15T13:42:57.780Z,100678.22
2019-02-15T13:45:26.479Z,100674.20
2019-02-15T13:47:55.149Z,100673.14
2019-02-15T13:50:25.220Z,100678.35
2019-02-15T13:52:53.865Z,100675.20
2019-02-15T13:55:22.695Z,100679.42
2019-02-15T13:57:52.000Z,100684.61
2019-02-15T14:00:20.875Z,100687.94
2019-02-15T14:02:49.607Z,100676.06
2019-02-15T14:05:18.297Z,100674.97
2019-02-15T14:07:47.079Z,100670.09
2019-02-15T14:10:16.041Z,100675.31
2019-02-15T14:12:44.760Z,100674.56
2019-02-15T14:15:13.846Z,100677.84
2019-02-15T14:17:46.299Z,100672.34
2019-02-15T14:20:16.410Z,100680.06
2019-02-15T14:22:45.059Z,100675.08
2019-02-15T14:25:13.751Z,100678.40
2019-02-15T14:27:42.431Z,100681.86
2019-02-15T14:30:14.730Z,100683.00
2019-02-15T14:32:43.372Z,100676.49
2019-02-15T14:35:13.715Z,100684.09
2019-02-15T14:37:42.417Z,100680.84
2019-02-15T14:40:12.174Z,100679.06
2019-02-15T14:42:40.843Z,100683.52
2019-02-15T14:45:15.361Z,100680.23
2019-02-15T14:47:54.935Z,100681.30
2019-02-15T14:50:20.274Z,100684.17
2019-02-15T14:52:48.807Z,100681.22
2019-02-15T14:55:17.376Z,100679.95
2019-02-15T14:57:46.606Z,100683.03
2019-02-15T15:00:16.052Z,100676.06
2019-02-15T15:02:44.671Z,100681.30
2019-02-15T15:05:15.086Z,100679.98
2019-02-15T15:07:43.970Z,100677.94
2019-02-15T15:10:12.818Z,100686.61
2019-02-15T15:12:43.922Z,100688.77
2019-02-15T15:15:18.599Z,100689.95
2019-02-15T15:17:47.151Z,100685.56
2019-02-15T15:20:18.442Z,100693.75
2019-02-15T15:22:47.023Z,100693.55
2019-02-15T15:25:16.150Z,100699.50
2019-02-15T15:27:45.128Z,100702.05
2019-02-15T15:30:17.159Z,100702.88
2019-02-15T15:32:45.773Z,100698.88
2019-02-15T15:35:17.380Z,100709.20
2019-02-15T15:37:46.045Z,100709.59
2019-02-15T15:40:16.780Z,100706.53
2019-02-15T15:42:45.338Z,100715.95
2019-02-15T15:45:16.736Z,100711.72
2019-02-15T15:47:45.436Z,100718.59
2019-02-15T15:50:14.243Z,100721.01
2019-02-15T15:52:43.429Z,100718.94
2019-02-15T15:55:13.498Z,100719.20
2019-02-15T15:57:42.228Z,100729.21
2019-02-15T16:00:13.612Z,100725.28
2019-02-15T16:02:42.186Z,100730.38
2019-02-15T16:05:11.194Z,100741.20
2019-02-15T16:07:40.374Z,100736.42
2019-02-15T16:10:16.924Z,100734.21
2019-02-15T16:12:45.512Z,100734.69
2019-02-15T16:15:14.790Z,100750.52
2019-02-15T16:17:43.384Z,100746.68
2019-02-15T16:20:21.184Z,100745.42
2019-02-15T16:22:49.989Z,100750.91
2019-02-15T16:25:18.670Z,100758.33
2019-02-15T16:27:47.374Z,100761.31
2019-02-15T16:30:16.477Z,100764.41
2019-02-15T16:32:45.162Z,100769.46
2019-02-15T16:35:14.063Z,100769.46
2019-02-15T16:37:42.761Z,100775.35
2019-02-15T16:40:16.109Z,100776.22
2019-02-15T16:42:45.000Z,100785.66
2019-02-15T16:45:15.007Z,100783.11
2019-02-15T16:47:43.879Z,100785.66
2019-02-15T16:50:13.202Z,100786.03
2019-02-15T16:52:41.808Z,100798.16
2019-02-15T16:55:13.237Z,100794.18
2019-02-15T16:57:41.085Z,100798.86
2019-02-15T17:00:12.164Z,100796.72
2019-02-15T17:02:40.789Z,100803.56
2019-02-15T17:05:09.746Z,100804.90
2019-02-15T17:07:38.393Z,100814.34
2019-02-15T17:10:09.278Z,100813.00
2019-02-15T17:12:45.269Z,100819.41
2019-02-15T17:15:15.017Z,100813.41
2019-02-15T17:17:43.622Z,100826.30
2019-02-15T17:20:12.284Z,100824.95
2019-02-15T17:22:41.178Z,100829.33
2019-02-15T17:25:11.667Z,100824.20
2019-02-15T17:27:40.297Z,100830.63
2019-02-15T17:30:10.972Z,100829.59
2019-02-15T17:32:39.628Z,100830.50
2019-02-15T17:35:13.159Z,100830.18
2019-02-15T17:37:41.799Z,100830.45
2019-02-15T17:40:16.706Z,100827.05
2019-02-15T17:42:45.401Z,100833.89
2019-02-15T17:45:14.986Z,100827.05
2019-02-15T17:47:46.964Z,100831.42
2019-02-15T17:50:20.190Z,100825.87
2019-02-15T17:52:48.763Z,100832.77
2019-02-15T17:55:20.231Z,100829.32
2019-02-15T17:57:48.913Z,100832.34
2019-02-15T18:00:19.439Z,100841.45
2019-02-15T18:02:48.284Z,100840.53
2019-02-15T18:05:16.870Z,100848.89
2019-02-15T18:07:47.103Z,100850.30
2019-02-15T18:10:15.707Z,100851.06
2019-02-15T18:12:44.341Z,100848.62
2019-02-15T18:15:13.016Z,100853.15
2019-02-15T18:17:42.240Z,100851.91
2019-02-15T18:20:11.274Z,100856.89
2019-02-15T18:22:39.824Z,100856.81
2019-02-15T18:25:09.160Z,100858.31
2019-02-15T18:27:37.844Z,100857.03
2019-02-15T18:30:09.734Z,100862.83
2019-02-15T18:32:38.424Z,100858.23
2019-02-15T18:35:07.724Z,100855.59
2019-02-15T18:37:36.417Z,100863.03
2019-02-15T18:40:07.922Z,100863.35
2019-02-15T18:42:36.611Z,100860.77
2019-02-15T18:45:07.699Z,100862.50
2019-02-15T18:47:36.425Z,100866.44
2019-02-15T18:50:07.480Z,100865.14
2019-02-15T18:52:35.984Z,100869.76
2019-02-15T18:55:05.564Z,100868.47
2019-02-15T18:57:34.198Z,100872.82
2019-02-15T19:00:02.937Z,100877.00
2019-02-15T19:02:31.618Z,100880.90
2019-02-15T19:05:03.356Z,100883.92
2019-02-15T19:07:32.045Z,100877.40
2019-02-15T19:10:00.843Z,100882.51
2019-02-15T19:12:29.474Z,100885.16
2019-02-15T19:14:58.130Z,100883.05
2019-02-15T19:17:26.649Z,100890.73
2019-02-15T19:19:55.728Z,100893.56
2019-02-15T19:22:25.140Z,100898.01
2019-02-15T19:24:53.838Z,100901.40
2019-02-15T19:27:22.478Z,100900.16
2019-02-15T19:29:51.262Z,100898.01
2019-02-15T19:32:19.959Z,100899.59
2019-02-15T19:34:48.656Z,100901.81
2019-02-15T19:37:17.361Z,100901.19
2019-02-15T19:39:46.025Z,100906.55
2019-02-15T19:42:14.635Z,100899.74
2019-02-15T19:44:46.529Z,100897.58
2019-02-15T19:47:22.163Z,100899.16
2019-02-15T19:49:55.428Z,100897.57
2019-02-15T19:52:24.201Z,100900.52
2019-02-15T19:54:52.764Z,100904.96
2019-02-15T19:57:21.319Z,100902.13
2019-02-15T19:59:53.619Z,100903.26
2019-02-15T20:02:21.737Z,100900.91
2019-02-15T20:04:50.650Z,100897.41
2019-02-15T20:07:19.406Z,100903.62
2019-02-15T20:09:48.086Z,100910.02
2019-02-15T20:12:16.714Z,100902.11
2019-02-15T20:14:45.402Z,100903.48
2019-02-15T20:17:14.049Z,100902.19
2019-02-15T20:19:48.677Z,100905.07
2019-02-15T20:22:13.094Z,100906.55
2019-02-15T20:24:41.736Z,100906.34
2019-02-15T20:27:10.349Z,100909.52
2019-02-15T20:29:38.984Z,100910.54
2019-02-15T20:32:07.672Z,100906.64
2019-02-15T20:34:45.187Z,100910.17
2019-02-15T20:37:09.094Z,100908.27
2019-02-15T20:39:38.454Z,100903.92
2019-02-15T20:42:07.105Z,100901.93
2019-02-15T20:44:35.603Z,100902.61
2019-02-15T20:47:04.287Z,100905.15
2019-02-15T20:49:33.349Z,100903.86
2019-02-15T20:52:02.020Z,100905.09
2019-02-15T20:54:33.581Z,100904.53
2019-02-15T20:57:02.866Z,100902.63
2019-02-15T20:59:31.380Z,100905.92
2019-02-15T21:01:59.947Z,100905.77
2019-02-15T21:04:28.558Z,100901.87
2019-02-15T21:06:57.893Z,100902.41
2019-02-15T21:09:27.124Z,100906.98
2019-02-15T21:11:55.691Z,100911.77
2019-02-15T21:14:24.299Z,100900.23
2019-02-15T21:16:53.559Z,100904.92
2019-02-15T21:19:22.242Z,100903.88
2019-02-15T21:21:50.769Z,100905.91
2019-02-15T21:24:19.250Z,100907.31
2019-02-15T21:26:47.823Z,100902.89
2019-02-15T21:29:16.745Z,100905.78
2019-02-15T21:31:45.283Z,100904.45
2019-02-15T21:34:13.984Z,100900.81
2019-02-15T21:36:42.661Z,100908.15
2019-02-15T21:39:11.299Z,100909.94
2019-02-15T21:41:39.984Z,100909.90
2019-02-15T21:44:08.545Z,100908.51
2019-02-15T21:46:40.290Z,100914.34
2019-02-15T21:49:08.905Z,100913.25
2019-02-15T21:51:37.529Z,100912.47
2019-02-15T21:54:06.158Z,100917.70
2019-02-15T21:56:34.842Z,100927.78
2019-02-15T21:59:03.339Z,100926.98
2019-02-15T22:01:32.017Z,100924.17
2019-02-15T22:04:00.912Z,100926.85
2019-02-15T22:06:29.606Z,100919.44
2019-02-15T22:08:58.083Z,100925.27
2019-02-15T22:11:26.702Z,100922.03
2019-02-15T22:13:58.183Z,100929.34
2019-02-15T22:16:26.747Z,100922.61
2019-02-15T22:18:55.293Z,100929.27
2019-02-15T22:21:23.837Z,100936.11
2019-02-15T22:23:52.529Z,100940.59
2019-02-15T22:26:21.090Z,100943.11
2019-02-15T22:28:49.688Z,100935.95
2019-02-15T22:31:18.325Z,100938.25
2019-02-15T22:33:46.946Z,100937.31
2019-02-15T22:36:15.588Z,100938.66
2019-02-15T22:38:44.066Z,100939.16
2019-02-15T22:41:14.356Z,100945.62
2019-02-15T22:43:43.617Z,100945.34
2019-02-15T22:46:12.303Z,100943.78
2019-02-15T22:48:40.975Z,100942.77
2019-02-15T22:51:09.590Z,100941.13
2019-02-15T22:53:38.200Z,100938.25
2019-02-15T22:56:06.845Z,100931.79
2019-02-15T22:58:35.783Z,100930.45
2019-02-15T23:01:07.224Z,100934.72
2019-02-15T23:03:35.846Z,100939.39
2019-02-15T23:06:07.301Z,100940.63
2019-02-15T23:08:35.901Z,100934.23
2019-02-15T23:11:05.635Z,100936.76
2019-02-15T23:13:34.326Z,100934.38
2019-02-15T23:16:02.964Z,100933.75
2019-02-15T23:18:31.595Z,100933.39
2019-02-15T23:21:00.207Z,100925.25
2019-02-15T23:23:28.690Z,100928.36
2019-02-15T23:25:57.290Z,100929.34
2019-02-15T23:28:25.851Z,100925.77
2019-02-15T23:30:54.536Z,100927.98
2019-02-15T23:33:23.022Z,100922.31
2019-02-15T23:35:51.652Z,100916.71
2019-02-15T23:38:20.196Z,100923.77
2019-02-15T23:40:48.754Z,100912.56
2019-02-15T23:43:17.361Z,100912.91
2019-02-15T23:45:45.993Z,100910.06
2019-02-15T23:48:14.679Z,100910.84
2019-02-15T23:50:43.382Z,100916.94
2019-02-15T23:53:12.057Z,100907.91
2019-02-15T23:55:40.693Z,100915.22
2019-02-15T23:58:09.407Z,100913.02
